createdAt,value
2023-07-08T00:01:16.334Z,81.80
2023-07-08T00:03:44.186Z,82.00
2023-07-08T00:06:22.527Z,82.20
2023-07-08T00:08:50.723Z,82.40
2023-07-08T00:11:18.930Z,82.20
2023-07-08T00:13:46.897Z,82.40
2023-07-08T00:16:17.581Z,82.40
2023-07-08T00:18:45.805Z,82.10
2023-07-08T00:21:16.752Z,83.40
2023-07-08T00:23:46.846Z,85.10
2023-07-08T00:26:26.382Z,85.70
2023-07-08T00:28:54.745Z,83.70
2023-07-08T00:31:25.639Z,83.40
2023-07-08T00:33:58.426Z,82.50
2023-07-08T00:36:28.436Z,82.60
2023-07-08T00:38:56.842Z,83.80
2023-07-08T00:41:39.582Z,84.90
2023-07-08T00:44:09.916Z,83.30
2023-07-08T00:47:05.598Z,82.70
2023-07-08T00:49:39.505Z,83.60
2023-07-08T00:52:26.366Z,84.90
2023-07-08T00:55:01.960Z,84.50
2023-07-08T00:57:36.137Z,84.60
2023-07-08T01:00:13.300Z,86.60
2023-07-08T01:02:56.176Z,87.30
2023-07-08T01:05:28.337Z,87.70
2023-07-08T01:08:01.414Z,87.30
2023-07-08T01:10:34.905Z,82.90
2023-07-08T01:13:08.676Z,82.70
2023-07-08T01:15:46.327Z,83.50
2023-07-08T01:18:17.694Z,83.80
2023-07-08T01:20:48.635Z,85.00
2023-07-08T01:23:16.476Z,85.10
2023-07-08T01:25:45.469Z,85.30
2023-07-08T01:28:14.059Z,85.10
2023-07-08T01:30:43.815Z,85.60
2023-07-08T01:33:23.167Z,85.40
2023-07-08T01:35:51.151Z,86.50
2023-07-08T01:38:25.102Z,86.60
2023-07-08T01:40:55.625Z,85.70
2023-07-08T01:43:23.518Z,86.20
2023-07-08T01:45:53.183Z,85.90
2023-07-08T01:48:24.380Z,86.60
2023-07-08T01:51:04.971Z,86.80
2023-07-08T01:53:36.356Z,86.40
2023-07-08T01:56:06.036Z,86.90
2023-07-08T01:58:35.040Z,87.80
2023-07-08T02:01:03.602Z,87.80
2023-07-08T02:03:31.499Z,88.30
2023-07-08T02:05:59.459Z,88.00
2023-07-08T02:08:27.734Z,88.40
2023-07-08T02:11:00.029Z,88.70
2023-07-08T02:13:28.210Z,87.70
2023-07-08T02:15:55.880Z,87.20
2023-07-08T02:18:24.819Z,87.90
2023-07-08T02:20:52.501Z,88.20
2023-07-08T02:23:21.004Z,87.50
2023-07-08T02:25:52.980Z,88.10
2023-07-08T02:28:21.391Z,86.80
2023-07-08T02:30:49.037Z,85.20
2023-07-08T02:33:18.793Z,86.30
2023-07-08T02:35:46.992Z,86.70
2023-07-08T02:38:14.663Z,86.90
2023-07-08T02:40:43.641Z,86.80
2023-07-08T02:43:11.402Z,87.00
2023-07-08T02:45:39.788Z,88.10
2023-07-08T02:48:07.526Z,87.10
2023-07-08T02:50:35.152Z,87.50
2023-07-08T02:53:03.007Z,87.70
2023-07-08T02:55:30.667Z,88.10
2023-07-08T02:57:58.351Z,88.80
2023-07-08T03:00:25.934Z,88.50
2023-07-08T03:02:53.653Z,89.30
2023-07-08T03:05:21.340Z,88.90
2023-07-08T03:07:48.976Z,88.30
2023-07-08T03:10:16.761Z,89.40
2023-07-08T03:12:44.900Z,89.80
2023-07-08T03:15:13.351Z,89.30
2023-07-08T03:17:42.197Z,90.00
2023-07-08T03:20:11.505Z,90.10
2023-07-08T03:22:39.218Z,90.20
2023-07-08T03:25:08.126Z,90.80
2023-07-08T03:27:37.464Z,90.30
2023-07-08T03:30:06.512Z,90.30
2023-07-08T03:32:35.960Z,90.10
2023-07-08T03:35:03.782Z,90.20
2023-07-08T03:37:31.370Z,90.30
2023-07-08T03:39:59.265Z,90.10
2023-07-08T03:42:26.923Z,90.00
2023-07-08T03:44:54.552Z,90.30
2023-07-08T03:47:25.000Z,90.10
2023-07-08T03:49:53.578Z,90.30
2023-07-08T03:52:22.339Z,90.80
2023-07-08T03:54:50.045Z,89.50
2023-07-08T03:57:19.332Z,90.10
2023-07-08T03:59:48.783Z,90.60
2023-07-08T04:02:16.464Z,90.10
2023-07-08T04:04:45.382Z,89.40
2023-07-08T04:07:13.701Z,89.10
2023-07-08T04:09:41.385Z,88.60
2023-07-08T04:12:09.972Z,88.60
2023-07-08T04:14:37.706Z,89.30
2023-07-08T04:17:05.420Z,90.20
2023-07-08T04:19:33.111Z,90.70
2023-07-08T04:22:03.016Z,90.50
2023-07-08T04:24:30.683Z,90.10
2023-07-08T04:26:59.202Z,90.70
2023-07-08T04:29:26.805Z,90.90
2023-07-08T04:31:54.585Z,91.00
2023-07-08T04:34:22.251Z,91.00
2023-07-08T04:36:49.855Z,91.40
2023-07-08T04:39:17.809Z,91.80
2023-07-08T04:41:45.859Z,92.00
2023-07-08T04:44:14.725Z,92.60
2023-07-08T04:46:47.342Z,93.00
2023-07-08T04:49:15.275Z,92.80
2023-07-08T04:51:43.452Z,91.50
2023-07-08T04:54:11.742Z,90.80
2023-07-08T04:56:50.363Z,91.40
2023-07-08T04:59:21.789Z,87.40
2023-07-08T05:01:50.466Z,83.30
2023-07-08T05:04:20.437Z,83.30
2023-07-08T05:06:49.206Z,82.40
2023-07-08T05:09:17.757Z,84.20
2023-07-08T05:11:45.626Z,84.70
2023-07-08T05:14:14.524Z,84.00
2023-07-08T05:16:42.402Z,85.20
2023-07-08T05:19:11.221Z,84.70
2023-07-08T05:21:39.508Z,81.30
2023-07-08T05:24:07.909Z,83.10
2023-07-08T05:26:35.908Z,82.40
2023-07-08T05:29:03.636Z,81.10
2023-07-08T05:31:46.532Z,79.30
2023-07-08T05:34:16.232Z,83.20
2023-07-08T05:36:44.280Z,76.80
2023-07-08T05:39:11.890Z,75.70
2023-07-08T05:41:39.603Z,80.70
2023-07-08T05:44:07.232Z,87.10
2023-07-08T05:46:34.896Z,81.50
2023-07-08T05:49:02.536Z,80.20
2023-07-08T05:51:30.290Z,81.50
2023-07-08T05:53:58.390Z,78.80
2023-07-08T05:56:25.977Z,79.30
2023-07-08T05:58:53.659Z,79.80
2023-07-08T06:01:21.334Z,78.90
2023-07-08T06:03:49.547Z,78.90
2023-07-08T06:06:17.238Z,80.40
2023-07-08T06:08:44.958Z,77.70
2023-07-08T06:11:12.614Z,78.30
2023-07-08T06:13:40.220Z,71.90
2023-07-08T06:16:07.926Z,75.10
2023-07-08T06:18:35.721Z,74.00
2023-07-08T06:21:03.987Z,77.90
2023-07-08T06:23:31.768Z,75.50
2023-07-08T06:25:59.444Z,77.80
2023-07-08T06:28:27.089Z,75.90
2023-07-08T06:30:54.680Z,76.30
2023-07-08T06:33:22.242Z,76.00
2023-07-08T06:35:49.821Z,76.70
2023-07-08T06:38:17.521Z,76.90
2023-07-08T06:40:45.217Z,77.10
2023-07-08T06:43:12.989Z,78.00
2023-07-08T06:45:48.993Z,76.00
2023-07-08T06:48:16.653Z,77.70
2023-07-08T06:50:48.276Z,80.00
2023-07-08T06:53:16.871Z,79.90
2023-07-08T06:55:47.884Z,79.00
2023-07-08T06:58:15.547Z,76.90
2023-07-08T07:00:44.839Z,76.60
2023-07-08T07:03:13.209Z,75.50
2023-07-08T07:05:41.196Z,73.10
2023-07-08T07:08:09.192Z,72.40
2023-07-08T07:10:37.645Z,72.70
2023-07-08T07:13:05.513Z,75.70
2023-07-08T07:15:33.541Z,74.60
2023-07-08T07:18:01.602Z,74.70
2023-07-08T07:20:30.275Z,72.50
2023-07-08T07:22:58.392Z,75.10
2023-07-08T07:25:26.124Z,77.20
2023-07-08T07:27:53.816Z,69.50
2023-07-08T07:30:21.945Z,73.10
2023-07-08T07:32:49.545Z,68.10
2023-07-08T07:35:17.725Z,63.80
2023-07-08T07:37:45.456Z,64.40
2023-07-08T07:40:16.456Z,67.90
2023-07-08T07:42:47.154Z,65.90
2023-07-08T07:45:14.975Z,67.90
2023-07-08T07:47:42.780Z,62.20
2023-07-08T07:50:11.169Z,62.60
2023-07-08T07:52:38.946Z,66.20
2023-07-08T07:55:06.764Z,63.50
2023-07-08T07:57:34.476Z,63.20
2023-07-08T08:00:02.076Z,62.90
2023-07-08T08:02:44.626Z,62.90
2023-07-08T08:05:12.297Z,61.30
2023-07-08T08:07:41.704Z,65.60
2023-07-08T08:10:09.870Z,63.90
2023-07-08T08:12:48.607Z,61.30
2023-07-08T08:15:22.870Z,59.90
2023-07-08T08:17:53.247Z,61.70
2023-07-08T08:20:22.999Z,64.00
2023-07-08T08:22:51.736Z,64.10
2023-07-08T08:25:21.374Z,61.20
2023-07-08T08:27:49.238Z,59.30
2023-07-08T08:30:17.068Z,63.20
2023-07-08T08:32:44.791Z,59.60
2023-07-08T08:35:12.438Z,63.10
2023-07-08T08:37:40.126Z,60.10
2023-07-08T08:40:11.152Z,57.60
2023-07-08T08:42:47.677Z,60.10
2023-07-08T08:45:19.924Z,60.80
2023-07-08T08:47:52.880Z,60.70
2023-07-08T08:50:26.922Z,58.10
2023-07-08T08:52:56.328Z,58.80
2023-07-08T08:55:25.580Z,58.20
2023-07-08T08:58:18.472Z,57.70
2023-07-08T09:00:56.959Z,58.10
2023-07-08T09:03:38.987Z,60.30
2023-07-08T09:06:22.657Z,56.70
2023-07-08T09:08:52.154Z,59.20
2023-07-08T09:11:41.817Z,57.70
2023-07-08T09:14:21.041Z,56.40
2023-07-08T09:17:12.948Z,57.70
2023-07-08T09:19:49.505Z,57.70
2023-07-08T09:22:22.762Z,55.20
2023-07-08T09:25:12.964Z,55.00
2023-07-08T09:27:40.589Z,54.50
2023-07-08T09:30:16.799Z,56.60
2023-07-08T09:32:44.564Z,58.30
2023-07-08T09:35:29.021Z,55.70
2023-07-08T09:37:56.896Z,55.70
2023-07-08T09:40:34.602Z,55.40
2023-07-08T09:43:24.757Z,52.50
2023-07-08T09:45:52.475Z,54.90
2023-07-08T09:48:27.971Z,53.40
2023-07-08T09:50:58.675Z,55.00
2023-07-08T09:53:28.188Z,54.20
2023-07-08T09:55:59.869Z,56.70
2023-07-08T09:58:34.013Z,57.40
2023-07-08T10:01:14.422Z,56.40
2023-07-08T10:03:43.330Z,55.00
2023-07-08T10:06:28.950Z,55.80
2023-07-08T10:09:01.149Z,55.30
2023-07-08T10:11:28.785Z,55.10
2023-07-08T10:14:13.996Z,57.00
2023-07-08T10:16:43.486Z,56.70
2023-07-08T10:19:15.467Z,55.50
2023-07-08T10:22:05.005Z,55.80
2023-07-08T10:24:51.382Z,57.50
2023-07-08T10:27:37.445Z,58.50
2023-07-08T10:30:07.984Z,54.80
2023-07-08T10:32:54.221Z,55.60
2023-07-08T10:35:30.382Z,56.70
2023-07-08T10:38:10.304Z,54.00
2023-07-08T10:40:46.723Z,54.80
2023-07-08T10:43:19.737Z,54.60
2023-07-08T10:45:47.648Z,57.80
2023-07-08T10:49:03.248Z,58.50
2023-07-08T10:51:55.375Z,55.50
2023-07-08T10:54:47.473Z,53.30
2023-07-08T10:57:35.509Z,54.90
2023-07-08T11:00:22.224Z,58.20
2023-07-08T11:03:10.996Z,55.60
2023-07-08T11:05:44.644Z,55.20
2023-07-08T11:08:27.556Z,55.50
2023-07-08T11:11:15.395Z,56.80
2023-07-08T11:13:58.775Z,56.70
2023-07-08T11:16:42.457Z,55.70
2023-07-08T11:19:20.582Z,57.00
2023-07-08T11:21:52.221Z,56.20
2023-07-08T11:24:44.635Z,56.00
2023-07-08T11:27:29.305Z,57.20
2023-07-08T11:30:14.323Z,52.90
2023-07-08T11:32:45.415Z,56.60
2023-07-08T11:35:38.072Z,55.00
2023-07-08T11:38:06.766Z,52.70
2023-07-08T11:40:50.617Z,54.00
2023-07-08T11:43:19.811Z,54.40
2023-07-08T11:45:49.962Z,55.90
2023-07-08T11:48:23.145Z,55.50
2023-07-08T11:50:52.930Z,55.40
2023-07-08T11:53:37.034Z,56.10
2023-07-08T11:56:16.894Z,54.90
2023-07-08T11:58:50.600Z,55.10
2023-07-08T12:01:18.292Z,55.20
2023-07-08T12:03:52.017Z,54.10
2023-07-08T12:06:29.215Z,55.30
2023-07-08T12:09:13.471Z,56.40
2023-07-08T12:11:45.870Z,56.80
2023-07-08T12:14:15.817Z,55.40
2023-07-08T12:16:44.993Z,56.70
2023-07-08T12:19:17.324Z,55.10
2023-07-08T12:21:44.952Z,56.10
2023-07-08T12:24:15.264Z,55.60
2023-07-08T12:26:43.447Z,54.90
2023-07-08T12:29:17.417Z,55.10
2023-07-08T12:31:45.465Z,54.20
2023-07-08T12:34:17.976Z,56.10
2023-07-08T12:36:47.606Z,54.40
2023-07-08T12:39:17.863Z,56.00
2023-07-08T12:41:47.514Z,55.60
2023-07-08T12:44:23.139Z,54.60
2023-07-08T12:46:54.917Z,55.80
2023-07-08T12:49:27.983Z,55.40
2023-07-08T12:51:55.723Z,55.50
2023-07-08T12:54:23.530Z,55.70
2023-07-08T12:56:52.829Z,53.50
2023-07-08T12:59:24.096Z,55.00
2023-07-08T13:01:53.462Z,54.10
2023-07-08T13:04:21.636Z,54.00
2023-07-08T13:06:50.295Z,55.50
2023-07-08T13:09:46.030Z,54.90
2023-07-08T13:12:24.153Z,54.10
2023-07-08T13:14:56.852Z,54.70
2023-07-08T13:17:25.185Z,55.90
2023-07-08T13:19:53.199Z,55.40
2023-07-08T13:22:23.088Z,55.00
2023-07-08T13:25:00.657Z,54.60
2023-07-08T13:27:28.965Z,55.70
2023-07-08T13:30:16.547Z,54.60
2023-07-08T13:32:44.715Z,57.70
2023-07-08T13:35:37.260Z,55.70
2023-07-08T13:38:05.117Z,55.00
2023-07-08T13:40:33.861Z,54.90
2023-07-08T13:43:01.887Z,55.70
2023-07-08T13:45:33.440Z,56.10
2023-07-08T13:48:02.210Z,54.40
2023-07-08T13:50:37.190Z,54.60
2023-07-08T13:53:15.813Z,54.10
2023-07-08T13:55:44.075Z,54.80
2023-07-08T13:58:16.823Z,55.50
2023-07-08T14:00:44.964Z,54.10
2023-07-08T14:03:16.335Z,53.80
2023-07-08T14:05:44.931Z,53.90
2023-07-08T14:08:17.732Z,54.80
2023-07-08T14:10:45.708Z,54.80
2023-07-08T14:13:13.661Z,54.50
2023-07-08T14:15:41.420Z,55.70
2023-07-08T14:18:12.182Z,55.50
2023-07-08T14:20:40.242Z,53.00
2023-07-08T14:23:09.954Z,53.50
2023-07-08T14:25:37.547Z,54.10
2023-07-08T14:28:07.130Z,54.10
2023-07-08T14:30:37.296Z,53.90
2023-07-08T14:33:07.179Z,52.90
2023-07-08T14:35:35.781Z,52.10
2023-07-08T14:38:03.474Z,53.80
2023-07-08T14:40:38.118Z,52.80
2023-07-08T14:43:17.696Z,51.10
2023-07-08T14:45:50.346Z,53.70
2023-07-08T14:48:18.273Z,53.20
2023-07-08T14:50:46.458Z,52.30
2023-07-08T14:53:19.949Z,53.30
2023-07-08T14:55:50.712Z,53.30
2023-07-08T14:58:33.898Z,54.00
2023-07-08T15:01:12.975Z,52.50
2023-07-08T15:03:40.891Z,52.30
2023-07-08T15:06:12.669Z,53.00
2023-07-08T15:08:40.345Z,54.80
2023-07-08T15:11:12.068Z,54.50
2023-07-08T15:13:40.960Z,54.60
2023-07-08T15:16:15.556Z,54.80
2023-07-08T15:18:44.395Z,53.70
2023-07-08T15:21:16.446Z,52.90
2023-07-08T15:23:44.347Z,53.60
2023-07-08T15:26:13.443Z,52.20
2023-07-08T15:28:50.518Z,52.20
2023-07-08T15:31:32.936Z,53.40
2023-07-08T15:34:00.773Z,54.20
2023-07-08T15:36:28.926Z,54.00
2023-07-08T15:38:56.758Z,53.30
2023-07-08T15:41:27.072Z,53.70
2023-07-08T15:43:56.195Z,54.00
2023-07-08T15:46:32.174Z,55.20
2023-07-08T15:48:59.911Z,53.80
2023-07-08T15:51:27.616Z,54.60
2023-07-08T15:53:55.332Z,54.40
2023-07-08T15:56:24.060Z,54.70
2023-07-08T15:58:51.784Z,55.00
2023-07-08T16:01:26.109Z,54.80
2023-07-08T16:03:54.308Z,55.70
2023-07-08T16:06:22.054Z,54.80
2023-07-08T16:08:49.705Z,54.80
2023-07-08T16:11:24.860Z,54.20
2023-07-08T16:13:52.524Z,55.20
2023-07-08T16:16:20.598Z,56.10
2023-07-08T16:18:48.408Z,59.70
2023-07-08T16:21:17.109Z,59.10
2023-07-08T16:23:44.782Z,59.00
2023-07-08T16:26:16.180Z,58.70
2023-07-08T16:28:47.075Z,59.00
2023-07-08T16:31:20.394Z,62.00
2023-07-08T16:33:49.829Z,64.50
2023-07-08T16:36:21.051Z,64.70
2023-07-08T16:38:49.746Z,65.10
2023-07-08T16:41:20.262Z,66.00
2023-07-08T16:43:48.225Z,66.40
2023-07-08T16:46:19.528Z,67.50
2023-07-08T16:48:47.413Z,68.10
2023-07-08T16:51:22.483Z,69.40
2023-07-08T16:53:50.649Z,69.70
2023-07-08T16:56:20.267Z,70.10
2023-07-08T16:58:47.945Z,71.10
2023-07-08T17:01:25.098Z,70.90
2023-07-08T17:03:54.848Z,70.60
2023-07-08T17:06:23.424Z,69.70
2023-07-08T17:08:51.275Z,69.00
2023-07-08T17:11:19.225Z,69.30
2023-07-08T17:13:47.003Z,69.60
2023-07-08T17:16:18.384Z,69.70
2023-07-08T17:18:48.735Z,70.20
2023-07-08T17:21:17.292Z,70.80
2023-07-08T17:23:44.960Z,70.30
2023-07-08T17:26:12.581Z,71.10
2023-07-08T17:28:40.210Z,69.80
2023-07-08T17:31:14.861Z,70.50
2023-07-08T17:33:43.224Z,70.40
2023-07-08T17:36:12.682Z,71.50
2023-07-08T17:38:48.569Z,71.90
2023-07-08T17:41:20.841Z,72.70
2023-07-08T17:43:48.758Z,73.10
2023-07-08T17:46:20.538Z,73.10
2023-07-08T17:48:49.274Z,74.10
2023-07-08T17:51:25.378Z,75.10
2023-07-08T17:53:53.647Z,75.40
2023-07-08T17:56:49.305Z,75.30
2023-07-08T17:59:20.683Z,75.90
2023-07-08T18:01:48.860Z,75.90
2023-07-08T18:04:16.601Z,75.90
2023-07-08T18:06:44.216Z,76.20
2023-07-08T18:09:12.350Z,76.90
2023-07-08T18:11:48.714Z,76.10
2023-07-08T18:14:16.930Z,76.30
2023-07-08T18:16:45.819Z,76.50
2023-07-08T18:19:13.675Z,76.60
2023-07-08T18:21:41.432Z,76.60
2023-07-08T18:24:13.167Z,77.20
2023-07-08T18:26:41.036Z,77.30
2023-07-08T18:29:12.118Z,77.20
2023-07-08T18:31:42.517Z,77.40
2023-07-08T18:34:10.563Z,77.30
2023-07-08T18:36:38.397Z,76.90
2023-07-08T18:39:06.098Z,76.70
2023-07-08T18:41:45.104Z,76.30
2023-07-08T18:44:24.738Z,76.00
2023-07-08T18:46:52.500Z,75.90
2023-07-08T18:49:20.642Z,75.90
2023-07-08T18:51:48.370Z,75.80
2023-07-08T18:54:18.319Z,75.40
2023-07-08T18:56:46.664Z,75.20
2023-07-08T18:59:14.446Z,75.30
2023-07-08T19:01:46.990Z,75.00
2023-07-08T19:04:25.549Z,75.00
2023-07-08T19:06:55.186Z,74.40
2023-07-08T19:09:23.168Z,74.00
2023-07-08T19:11:51.485Z,74.00
2023-07-08T19:14:19.344Z,73.70
2023-07-08T19:16:47.121Z,73.30
2023-07-08T19:19:15.194Z,72.70
2023-07-08T19:21:43.279Z,72.40
2023-07-08T19:24:24.079Z,72.00
2023-07-08T19:27:00.188Z,71.80
2023-07-08T19:29:27.773Z,72.10
2023-07-08T19:31:55.469Z,71.80
2023-07-08T19:34:23.027Z,71.50
2023-07-08T19:36:50.697Z,72.30
2023-07-08T19:39:18.390Z,72.60
2023-07-08T19:41:46.059Z,73.60
2023-07-08T19:44:23.715Z,73.50
2023-07-08T19:46:51.364Z,73.90
2023-07-08T19:49:19.045Z,71.80
2023-07-08T19:51:46.838Z,72.70
2023-07-08T19:54:14.426Z,71.90
2023-07-08T19:56:42.100Z,72.20
2023-07-08T19:59:15.165Z,72.90
2023-07-08T20:01:42.802Z,72.60
2023-07-08T20:04:17.198Z,71.60
2023-07-08T20:06:45.826Z,71.90
2023-07-08T20:09:16.047Z,72.00
2023-07-08T20:11:44.624Z,72.50
2023-07-08T20:14:12.751Z,74.00
2023-07-08T20:16:42.669Z,75.10
2023-07-08T20:19:19.989Z,76.30
2023-07-08T20:21:48.134Z,77.40
2023-07-08T20:24:15.760Z,77.70
2023-07-08T20:26:44.536Z,78.10
2023-07-08T20:29:21.468Z,78.40
2023-07-08T20:31:49.270Z,78.60
2023-07-08T20:34:19.224Z,78.80
2023-07-08T20:36:47.676Z,78.50
2023-07-08T20:39:20.258Z,77.90
2023-07-08T20:41:47.941Z,78.80
2023-07-08T20:44:15.614Z,78.60
2023-07-08T20:46:46.022Z,79.10
2023-07-08T20:49:14.093Z,78.20
2023-07-08T20:51:41.820Z,79.10
2023-07-08T20:54:13.705Z,79.10
2023-07-08T20:56:42.130Z,79.40
2023-07-08T20:59:17.048Z,79.30
2023-07-08T21:01:44.696Z,79.10
2023-07-08T21:04:12.494Z,78.80
2023-07-08T21:06:40.142Z,78.10
2023-07-08T21:09:15.152Z,78.70
2023-07-08T21:11:43.220Z,78.70
2023-07-08T21:14:11.119Z,78.20
2023-07-08T21:16:39.021Z,78.80
2023-07-08T21:19:09.037Z,78.70
2023-07-08T21:21:36.661Z,78.50
2023-07-08T21:24:04.814Z,78.80
2023-07-08T21:26:32.841Z,79.40
2023-07-08T21:29:02.161Z,80.60
2023-07-08T21:31:30.869Z,80.20
2023-07-08T21:33:58.785Z,79.80
2023-07-08T21:36:35.104Z,79.40
2023-07-08T21:39:19.818Z,80.10
2023-07-08T21:41:47.483Z,80.30
2023-07-08T21:44:18.361Z,78.90
2023-07-08T21:46:46.066Z,80.20
2023-07-08T21:49:13.835Z,79.10
2023-07-08T21:51:41.963Z,79.10
2023-07-08T21:54:11.795Z,79.30
2023-07-08T21:56:39.883Z,79.40
2023-07-08T21:59:18.979Z,77.60
2023-07-08T22:01:46.961Z,77.10
2023-07-08T22:04:15.917Z,76.80
2023-07-08T22:06:43.751Z,76.70
2023-07-08T22:09:11.716Z,76.70
2023-07-08T22:11:39.884Z,76.50
2023-07-08T22:14:10.618Z,76.70
2023-07-08T22:16:38.402Z,77.20
2023-07-08T22:19:06.433Z,80.20
2023-07-08T22:21:37.045Z,79.60
2023-07-08T22:24:07.733Z,79.80
2023-07-08T22:26:42.034Z,79.50
2023-07-08T22:29:10.757Z,80.00
2023-07-08T22:31:42.075Z,80.00
2023-07-08T22:34:18.907Z,80.80
2023-07-08T22:36:47.830Z,80.40
2023-07-08T22:39:15.464Z,81.10
2023-07-08T22:41:47.232Z,81.50
2023-07-08T22:44:17.828Z,81.60
2023-07-08T22:46:46.756Z,82.10
2023-07-08T22:49:24.425Z,81.80
2023-07-08T22:51:56.161Z,82.50
2023-07-08T22:54:24.671Z,82.00
2023-07-08T22:56:52.357Z,80.00
2023-07-08T22:59:20.088Z,81.10
2023-07-08T23:01:47.751Z,82.00
2023-07-08T23:04:15.448Z,81.80
2023-07-08T23:06:44.460Z,82.10
2023-07-08T23:09:18.346Z,81.70
2023-07-08T23:11:46.006Z,80.70
2023-07-08T23:14:13.705Z,81.60
2023-07-08T23:16:41.647Z,81.60
2023-07-08T23:19:12.890Z,80.90
2023-07-08T23:21:41.862Z,81.20
2023-07-08T23:24:09.749Z,82.50
2023-07-08T23:26:40.444Z,82.00
2023-07-08T23:29:20.088Z,82.80
2023-07-08T23:31:49.450Z,81.60
2023-07-08T23:34:17.958Z,81.80
2023-07-08T23:36:50.239Z,83.50
2023-07-08T23:39:24.223Z,82.60
2023-07-08T23:41:52.194Z,82.80
2023-07-08T23:44:21.746Z,82.30
2023-07-08T23:46:56.458Z,83.50
2023-07-08T23:49:26.621Z,83.30
2023-07-08T23:51:55.140Z,83.50
2023-07-08T23:54:25.110Z,83.80
2023-07-08T23:57:14.192Z,81.70
